Time;durP1;ratioP1;P1;durP2;ratioP2;P2;SDS_P1;SDS_P2;PMS_P1;PMS_P2;Temp;Humidity;BMP_temperature;BMP_pressure;BME280_temperature;BME280_humidity;BME280_pressure;Samples;Min_cycle;Max_cycle;Signal;HPM_P1;HPM_P2
2021/10/11 00:01:32;;;;;;;26.03;19.33;;;12.50;99.90;;;;;;5054432;28;20178;-65
2021/10/11 00:03:58;;;;;;;24.20;19.80;;;12.50;99.90;;;;;;5054468;28;20182;-65
2021/10/11 00:06:24;;;;;;;24.63;20.93;;;12.50;99.90;;;;;;5053183;28;20316;-65
2021/10/11 00:08:49;;;;;;;27.30;23.30;;;12.50;99.90;;;;;;5054954;28;20189;-65
2021/10/11 00:11:15;;;;;;;26.43;22.80;;;12.50;99.90;;;;;;5054310;28;20180;-65
2021/10/11 00:13:41;;;;;;;27.10;21.70;;;12.50;99.90;;;;;;5054480;28;20202;-65
2021/10/11 00:16:06;;;;;;;23.27;20.43;;;12.50;99.90;;;;;;5054943;28;20181;-65
2021/10/11 00:18:32;;;;;;;23.90;21.40;;;12.50;99.90;;;;;;5046181;28;20172;-65
2021/10/11 00:20:58;;;;;;;24.93;20.20;;;12.50;99.90;;;;;;5034786;28;20175;-65
2021/10/11 00:23:23;;;;;;;26.77;21.30;;;12.50;99.90;;;;;;5034736;28;20257;-70
2021/10/11 00:25:49;;;;;;;24.23;21.53;;;12.40;99.90;;;;;;5034539;28;20209;-65
2021/10/11 00:28:15;;;;;;;28.60;22.57;;;12.40;99.90;;;;;;5044327;28;20182;-65
2021/10/11 00:30:40;;;;;;;24.47;21.33;;;12.40;99.90;;;;;;5053858;28;20640;-65
2021/10/11 00:33:06;;;;;;;25.27;21.00;;;12.40;99.90;;;;;;5054247;28;20214;-65
2021/10/11 00:35:33;;;;;;;25.87;21.77;;;12.40;99.90;;;;;;5035875;28;20237;-65
2021/10/11 00:37:59;;;;;;;23.33;20.83;;;12.40;99.90;;;;;;5054641;28;20264;-65
2021/10/11 00:40:25;;;;;;;28.33;22.40;;;12.40;99.80;;;;;;5054082;28;20504;-71
2021/10/11 00:42:50;;;;;;;25.53;21.47;;;12.40;99.70;;;;;;5053624;28;20189;-65
2021/10/11 00:45:16;;;;;;;24.90;20.73;;;12.30;99.80;;;;;;5054377;28;20408;-65
2021/10/11 00:47:42;;;;;;;26.00;21.00;;;12.30;99.90;;;;;;5053529;28;20250;-65
2021/10/11 00:50:08;;;;;;;25.43;21.93;;;12.30;99.90;;;;;;5054034;28;20224;-65
2021/10/11 00:52:34;;;;;;;24.03;21.30;;;12.30;99.90;;;;;;5053432;28;20177;-65
2021/10/11 00:55:00;;;;;;;27.67;23.03;;;12.30;99.90;;;;;;5054131;28;20413;-65
2021/10/11 00:57:26;;;;;;;25.00;21.30;;;12.30;99.90;;;;;;5054133;28;20440;-72
2021/10/11 00:59:52;;;;;;;28.27;23.80;;;12.40;99.90;;;;;;5052864;28;20421;-65
2021/10/11 01:02:18;;;;;;;29.07;22.23;;;12.30;99.90;;;;;;5053737;28;20623;-65
2021/10/11 01:04:44;;;;;;;26.03;22.93;;;12.30;99.90;;;;;;5051855;28;20194;-65
2021/10/11 01:07:10;;;;;;;26.17;22.80;;;12.30;99.90;;;;;;5053899;28;20448;-65
2021/10/11 01:09:36;;;;;;;29.67;22.77;;;12.40;99.90;;;;;;5052617;28;20511;-65
2021/10/11 01:12:02;;;;;;;30.70;23.43;;;12.50;99.90;;;;;;5053949;28;20499;-64
2021/10/11 01:14:29;;;;;;;24.37;21.77;;;12.50;99.90;;;;;;5052789;28;20240;-72
2021/10/11 01:16:55;;;;;;;26.00;22.73;;;12.50;99.90;;;;;;5035298;28;20268;-65
2021/10/11 01:19:21;;;;;;;28.80;22.33;;;12.50;99.90;;;;;;5053455;28;20426;-65
2021/10/11 01:21:46;;;;;;;26.07;22.20;;;12.60;99.90;;;;;;5052848;28;20957;-65
2021/10/11 01:24:12;;;;;;;26.13;22.53;;;12.60;99.90;;;;;;5053703;28;20418;-65
2021/10/11 01:26:43;;;;;;;25.80;22.47;;;12.60;99.90;;;;;;5035085;28;20207;-65
2021/10/11 01:29:13;;;;;;;30.50;22.50;;;12.60;99.90;;;;;;5053642;28;20173;-65
2021/10/11 01:31:40;;;;;;;29.50;22.80;;;12.70;99.90;;;;;;5052430;28;20416;-62
2021/10/11 01:34:05;;;;;;;26.67;22.60;;;12.70;99.90;;;;;;5053068;28;20465;-62
2021/10/11 01:36:31;;;;;;;23.57;20.30;;;12.80;99.90;;;;;;5037480;28;20444;-69
2021/10/11 01:38:59;;;;;;;25.77;21.70;;;12.80;99.90;;;;;;5035607;28;20497;-62
2021/10/11 01:41:26;;;;;;;26.53;22.70;;;12.80;99.90;;;;;;5052760;28;20482;-62
2021/10/11 01:43:52;;;;;;;29.77;23.70;;;12.90;99.90;;;;;;5052519;28;20421;-62
2021/10/11 01:46:18;;;;;;;24.40;21.67;;;12.90;99.90;;;;;;5052855;28;20461;-62
2021/10/11 01:48:44;;;;;;;27.90;23.40;;;12.90;99.90;;;;;;5051198;28;20465;-62
2021/10/11 01:51:11;;;;;;;28.30;22.60;;;12.90;99.90;;;;;;5034836;28;20420;-62
2021/10/11 01:53:36;;;;;;;31.13;24.70;;;12.80;99.90;;;;;;5051848;28;20434;-63
2021/10/11 01:56:02;;;;;;;27.00;22.67;;;12.80;99.90;;;;;;5052999;28;20512;-62
2021/10/11 01:58:28;;;;;;;28.30;23.60;;;12.80;99.90;;;;;;5052976;28;20171;-65
2021/10/11 02:00:55;;;;;;;27.23;23.30;;;12.80;99.90;;;;;;5052411;28;20474;-62
2021/10/11 02:03:20;;;;;;;28.20;24.13;;;12.80;99.90;;;;;;5052910;28;20501;-64
2021/10/11 02:05:46;;;;;;;26.23;23.00;;;12.80;99.90;;;;;;5051361;28;20562;-64
2021/10/11 02:08:12;;;;;;;28.93;22.97;;;12.80;99.90;;;;;;5053076;28;20185;-64
2021/10/11 02:10:37;;;;;;;28.70;24.03;;;12.80;99.90;;;;;;5052101;28;20179;-64
2021/10/11 02:13:03;;;;;;;29.70;23.20;;;12.80;99.90;;;;;;5051660;28;20181;-64
2021/10/11 02:15:29;;;;;;;28.03;25.03;;;12.80;99.90;;;;;;5052717;28;20629;-64
2021/10/11 02:17:58;;;;;;;28.03;24.60;;;12.80;99.90;;;;;;5052064;28;20171;-64
2021/10/11 02:20:25;;;;;;;28.17;24.90;;;12.80;99.90;;;;;;5052666;28;20768;-63
2021/10/11 02:22:50;;;;;;;30.07;24.60;;;12.90;99.90;;;;;;5033929;28;20533;-64
2021/10/11 02:25:16;;;;;;;27.70;24.00;;;12.90;99.90;;;;;;5052248;28;20972;-64
2021/10/11 02:27:42;;;;;;;26.77;23.70;;;12.90;99.90;;;;;;5050636;28;20277;-64
2021/10/11 02:30:10;;;;;;;29.67;24.63;;;12.90;99.90;;;;;;5052184;28;20459;-64
2021/10/11 02:32:36;;;;;;;29.00;24.20;;;13.00;99.90;;;;;;5051087;28;20433;-64
2021/10/11 02:35:02;;;;;;;33.33;24.20;;;13.00;99.90;;;;;;5052196;28;20470;-64
2021/10/11 02:37:28;;;;;;;29.53;24.67;;;13.00;99.90;;;;;;5052089;28;20873;-64
2021/10/11 02:39:55;;;;;;;31.40;27.00;;;13.10;99.90;;;;;;5051398;28;20526;-64
2021/10/11 02:42:21;;;;;;;29.40;24.23;;;13.10;99.90;;;;;;5052089;28;20207;-65
2021/10/11 02:44:47;;;;;;;31.90;25.37;;;13.10;99.90;;;;;;5033397;28;20483;-67
2021/10/11 02:47:13;;;;;;;32.27;23.97;;;13.20;99.90;;;;;;5051741;28;20456;-65
2021/10/11 02:49:39;;;;;;;30.30;25.10;;;13.20;99.90;;;;;;5051383;28;20428;-65
2021/10/11 02:52:04;;;;;;;30.53;25.10;;;13.20;99.90;;;;;;5052167;28;20410;-65
2021/10/11 02:54:30;;;;;;;30.37;25.60;;;13.20;99.90;;;;;;5051901;28;20167;-65
2021/10/11 02:56:56;;;;;;;34.30;26.27;;;13.20;99.90;;;;;;5050770;28;20429;-65
2021/10/11 02:59:22;;;;;;;30.30;25.83;;;13.30;99.90;;;;;;5052150;28;20185;-65
2021/10/11 03:01:47;;;;;;;32.20;26.60;;;13.30;99.90;;;;;;5050955;28;20184;-65
2021/10/11 03:04:13;;;;;;;31.60;25.00;;;13.30;99.90;;;;;;5051922;28;20207;-65
2021/10/11 03:06:40;;;;;;;32.50;25.70;;;13.30;99.90;;;;;;5051114;28;20535;-66
2021/10/11 03:09:06;;;;;;;31.30;26.40;;;13.30;99.90;;;;;;5051984;28;20181;-66
2021/10/11 03:11:31;;;;;;;34.90;27.53;;;13.30;99.90;;;;;;5051622;28;20430;-66
2021/10/11 03:13:57;;;;;;;31.13;26.23;;;13.30;99.90;;;;;;5050573;28;20191;-65
2021/10/11 03:16:23;;;;;;;30.77;26.60;;;13.30;99.90;;;;;;5051951;28;20242;-66
2021/10/11 03:18:49;;;;;;;31.83;25.40;;;13.30;99.90;;;;;;5051168;28;20447;-65
2021/10/11 03:21:20;;;;;;;36.30;26.47;;;13.30;99.90;;;;;;5052200;28;20201;-65
2021/10/11 03:23:50;;;;;;;31.10;25.67;;;13.30;99.90;;;;;;5052931;28;20200;-65
2021/10/11 03:26:17;;;;;;;33.57;26.50;;;13.30;99.90;;;;;;5055937;28;20451;-66
2021/10/11 03:28:43;;;;;;;38.40;28.23;;;13.30;99.90;;;;;;5054722;28;20759;-65
2021/10/11 03:31:10;;;;;;;36.63;27.47;;;13.40;99.90;;;;;;5038018;28;20464;-65
2021/10/11 03:33:35;;;;;;;34.00;28.17;;;13.40;99.90;;;;;;5055024;28;20793;-66
2021/10/11 03:36:01;;;;;;;38.60;29.60;;;13.40;99.90;;;;;;5056420;28;20405;-65
2021/10/11 03:38:27;;;;;;;41.30;30.97;;;13.40;99.90;;;;;;5055960;28;20173;-65
2021/10/11 03:40:53;;;;;;;47.27;32.70;;;13.40;99.90;;;;;;5055435;28;20910;-65
2021/10/11 03:43:18;;;;;;;49.70;33.57;;;13.40;99.90;;;;;;5056065;28;20621;-65
2021/10/11 03:45:44;;;;;;;46.50;33.60;;;13.50;99.90;;;;;;5055302;28;20290;-65
2021/10/11 03:48:10;;;;;;;47.00;31.50;;;13.50;99.90;;;;;;5055166;28;20233;-65
2021/10/11 03:50:36;;;;;;;49.30;35.30;;;13.50;99.90;;;;;;5055181;28;20188;-70
2021/10/11 03:53:01;;;;;;;52.57;37.53;;;13.60;99.90;;;;;;5054566;28;20215;-65
2021/10/11 03:55:27;;;;;;;42.20;31.80;;;13.60;99.90;;;;;;5043502;28;20181;-65
2021/10/11 03:57:53;;;;;;;40.53;28.83;;;13.70;99.90;;;;;;5031616;28;20684;-65
2021/10/11 04:00:19;;;;;;;36.00;24.20;;;13.70;99.90;;;;;;5053331;28;20181;-67
2021/10/11 04:02:44;;;;;;;37.30;26.10;;;13.70;99.90;;;;;;5040039;28;20420;-65
2021/10/11 04:05:10;;;;;;;32.97;24.17;;;13.80;99.90;;;;;;5053089;28;20632;-65
2021/10/11 04:07:40;;;;;;;31.30;24.13;;;13.80;99.90;;;;;;5054458;28;20217;-74
2021/10/11 04:10:07;;;;;;;32.90;23.87;;;13.80;99.90;;;;;;5055573;28;20181;-65
2021/10/11 04:12:34;;;;;;;34.40;25.57;;;13.90;99.90;;;;;;5055321;28;20442;-65
2021/10/11 04:15:01;;;;;;;35.30;27.73;;;14.00;99.90;;;;;;5054697;28;20506;-65
2021/10/11 04:17:27;;;;;;;37.23;28.57;;;13.90;99.90;;;;;;5054690;28;20858;-65
2021/10/11 04:19:53;;;;;;;36.00;27.80;;;13.90;99.90;;;;;;5054098;28;20443;-65
2021/10/11 04:22:19;;;;;;;39.57;27.77;;;14.00;99.90;;;;;;5054530;28;20473;-65
2021/10/11 04:24:45;;;;;;;38.20;28.90;;;13.90;99.90;;;;;;5053306;28;20455;-65
2021/10/11 04:27:10;;;;;;;37.57;25.20;;;14.00;99.90;;;;;;5054918;28;20205;-65
2021/10/11 04:29:38;;;;;;;32.80;24.03;;;14.00;99.90;;;;;;5055433;28;20190;-65
2021/10/11 04:32:04;;;;;;;32.57;22.77;;;14.00;99.90;;;;;;5054765;28;20189;-65
2021/10/11 04:34:30;;;;;;;34.10;25.00;;;14.00;99.90;;;;;;5053275;28;20524;-65
2021/10/11 04:36:56;;;;;;;39.47;25.80;;;14.00;99.90;;;;;;5054211;28;20821;-65
2021/10/11 04:39:21;;;;;;;30.30;23.87;;;14.10;99.90;;;;;;5054861;28;20181;-65
2021/10/11 04:41:47;;;;;;;31.30;23.13;;;14.10;99.90;;;;;;5054190;28;20642;-65
2021/10/11 04:44:13;;;;;;;32.57;25.07;;;14.10;99.90;;;;;;5054838;28;20204;-65
2021/10/11 04:46:38;;;;;;;30.87;24.07;;;14.20;99.90;;;;;;5054106;28;20197;-74
2021/10/11 04:49:04;;;;;;;35.47;24.33;;;14.10;99.90;;;;;;5054146;28;20186;-65
2021/10/11 04:51:30;;;;;;;36.73;27.63;;;14.20;99.90;;;;;;5054328;28;20181;-65
2021/10/11 04:53:56;;;;;;;37.83;25.20;;;14.10;99.90;;;;;;5053024;28;20449;-66
2021/10/11 04:56:21;;;;;;;37.93;25.23;;;14.20;99.90;;;;;;5053446;28;20189;-65
2021/10/11 04:58:47;;;;;;;37.40;26.53;;;14.20;99.90;;;;;;5053744;28;20260;-65
2021/10/11 05:01:13;;;;;;;33.90;24.97;;;14.20;99.90;;;;;;5053838;28;20584;-65
2021/10/11 05:03:39;;;;;;;33.77;24.90;;;14.20;99.90;;;;;;5054237;28;20533;-65
2021/10/11 05:06:04;;;;;;;34.60;24.43;;;14.20;99.90;;;;;;5054486;28;20715;-65
2021/10/11 05:08:31;;;;;;;35.93;25.00;;;14.20;99.90;;;;;;5043874;28;20524;-65
2021/10/11 05:10:57;;;;;;;35.37;24.13;;;14.20;99.90;;;;;;5044705;28;20204;-65
2021/10/11 05:13:23;;;;;;;31.67;24.60;;;14.20;99.90;;;;;;5052856;28;20869;-65
2021/10/11 05:15:48;;;;;;;33.77;22.83;;;14.20;99.90;;;;;;5053456;28;20500;-65
2021/10/11 05:18:14;;;;;;;31.63;22.50;;;14.20;99.90;;;;;;5053556;28;20171;-75
2021/10/11 05:20:47;;;;;;;30.63;20.77;;;14.20;99.90;;;;;;5035866;28;20678;-73
2021/10/11 05:23:12;;;;;;;34.07;23.30;;;14.10;99.90;;;;;;5053786;28;20209;-66
2021/10/11 05:25:38;;;;;;;33.57;23.87;;;14.20;99.90;;;;;;5054145;28;20447;-66
2021/10/11 05:28:04;;;;;;;31.00;21.27;;;14.10;99.90;;;;;;5045003;28;20197;-66
2021/10/11 05:30:29;;;;;;;33.40;22.43;;;14.20;99.90;;;;;;5034026;28;20178;-66
2021/10/11 05:32:55;;;;;;;30.87;21.53;;;14.20;99.90;;;;;;5033456;28;20614;-66
2021/10/11 05:35:21;;;;;;;32.57;23.63;;;14.20;99.90;;;;;;5033861;28;20695;-66
2021/10/11 05:37:47;;;;;;;30.47;21.43;;;14.20;99.90;;;;;;5033274;28;20462;-66
2021/10/11 05:40:13;;;;;;;30.27;22.97;;;14.20;99.90;;;;;;5033497;28;20454;-66
2021/10/11 05:42:39;;;;;;;29.00;21.43;;;14.20;99.90;;;;;;5033764;28;20422;-66
2021/10/11 05:45:05;;;;;;;25.00;17.70;;;14.20;99.90;;;;;;5033176;28;20405;-69
2021/10/11 05:47:31;;;;;;;23.30;18.07;;;14.20;99.90;;;;;;5051022;28;20198;-66
2021/10/11 05:49:57;;;;;;;24.50;18.07;;;14.20;99.90;;;;;;5045826;28;20443;-66
2021/10/11 05:52:22;;;;;;;26.77;18.10;;;14.20;99.90;;;;;;5033631;28;20179;-66
2021/10/11 05:54:48;;;;;;;24.37;17.37;;;14.30;99.90;;;;;;5024888;28;20268;-68
2021/10/11 05:57:14;;;;;;;24.83;17.80;;;14.20;99.90;;;;;;5052574;28;20198;-68
2021/10/11 05:59:40;;;;;;;24.20;18.10;;;14.20;99.90;;;;;;5045632;28;20178;-67
2021/10/11 06:02:05;;;;;;;24.80;17.53;;;14.20;99.90;;;;;;5045030;28;20182;-68
2021/10/11 06:04:31;;;;;;;26.20;15.30;;;14.20;99.90;;;;;;5053200;28;20170;-67
2021/10/11 06:06:57;;;;;;;25.13;18.53;;;14.20;99.90;;;;;;5052895;28;20283;-68
2021/10/11 06:09:22;;;;;;;26.10;16.13;;;14.30;99.90;;;;;;5053165;28;20181;-67
2021/10/11 06:11:48;;;;;;;23.87;16.90;;;14.30;99.90;;;;;;5052614;28;20184;-68
2021/10/11 06:14:15;;;;;;;22.70;16.40;;;14.20;99.90;;;;;;5051713;28;20182;-68
2021/10/11 06:16:40;;;;;;;24.27;16.70;;;14.20;99.90;;;;;;5035430;28;20439;-68
2021/10/11 06:19:06;;;;;;;25.43;16.40;;;14.30;99.90;;;;;;5051880;28;20427;-67
2021/10/11 06:21:35;;;;;;;23.23;15.77;;;14.30;99.90;;;;;;5052655;28;20245;-67
2021/10/11 06:24:02;;;;;;;25.17;16.33;;;14.30;99.90;;;;;;5051710;28;20178;-67
2021/10/11 06:26:28;;;;;;;24.47;17.03;;;14.30;99.90;;;;;;5035279;28;20470;-67
2021/10/11 06:28:54;;;;;;;22.30;16.43;;;14.40;99.90;;;;;;5033633;28;20440;-67
2021/10/11 06:31:19;;;;;;;26.97;21.20;;;14.40;99.90;;;;;;5053186;28;20483;-67
2021/10/11 06:33:45;;;;;;;26.17;16.53;;;14.40;99.90;;;;;;5033610;28;20225;-69
2021/10/11 06:36:11;;;;;;;26.00;20.63;;;14.40;99.90;;;;;;5051350;28;20184;-67
2021/10/11 06:38:37;;;;;;;30.40;18.50;;;14.40;99.90;;;;;;5052637;28;20710;-67
2021/10/11 06:41:03;;;;;;;53.80;25.40;;;14.40;99.90;;;;;;5051644;28;20266;-67
2021/10/11 06:43:28;;;;;;;36.87;22.63;;;14.40;99.90;;;;;;5052631;28;20861;-65
2021/10/11 06:45:54;;;;;;;29.70;19.10;;;14.50;99.90;;;;;;5051251;28;20595;-65
2021/10/11 06:48:21;;;;;;;27.87;18.97;;;14.40;99.90;;;;;;5052810;28;20459;-65
2021/10/11 06:50:46;;;;;;;25.83;18.00;;;14.40;99.90;;;;;;5051663;28;20463;-66
2021/10/11 06:53:13;;;;;;;24.00;17.40;;;14.50;99.90;;;;;;5035282;28;20423;-66
2021/10/11 06:55:39;;;;;;;26.77;18.73;;;14.50;99.90;;;;;;5040025;28;20623;-65
2021/10/11 06:58:05;;;;;;;27.90;19.90;;;14.50;99.90;;;;;;5038604;28;20832;-65
2021/10/11 07:00:31;;;;;;;26.50;19.27;;;14.50;99.90;;;;;;5036986;28;20467;-65
2021/10/11 07:02:56;;;;;;;24.63;18.30;;;14.50;99.90;;;;;;5037001;28;20171;-69
2021/10/11 07:05:22;;;;;;;28.63;20.00;;;14.50;99.90;;;;;;5051968;28;20890;-65
2021/10/11 07:07:48;;;;;;;26.57;19.30;;;14.50;99.90;;;;;;5033649;28;20672;-66
2021/10/11 07:10:14;;;;;;;28.83;18.53;;;14.60;99.90;;;;;;5037485;28;20175;-66
2021/10/11 07:12:40;;;;;;;28.07;19.33;;;14.60;99.90;;;;;;5052240;28;20213;-65
2021/10/11 07:15:07;;;;;;;25.63;18.50;;;14.60;99.90;;;;;;5051531;28;21471;-65
2021/10/11 07:17:32;;;;;;;25.27;18.70;;;14.60;99.90;;;;;;5052022;28;20496;-65
2021/10/11 07:19:58;;;;;;;28.70;17.93;;;14.60;99.90;;;;;;5033573;28;20509;-66
2021/10/11 07:22:24;;;;;;;25.70;17.70;;;14.60;99.90;;;;;;5032578;28;20179;-65
2021/10/11 07:24:50;;;;;;;20.53;15.80;;;14.60;99.90;;;;;;5032442;28;20430;-66
2021/10/11 07:27:16;;;;;;;17.77;14.33;;;14.60;99.90;;;;;;5037915;28;20280;-66
2021/10/11 07:29:42;;;;;;;18.93;15.90;;;14.60;99.90;;;;;;5043020;28;20195;-65
2021/10/11 07:32:08;;;;;;;22.37;17.37;;;14.60;99.90;;;;;;5051525;28;20324;-65
2021/10/11 07:34:35;;;;;;;22.10;17.00;;;14.60;99.90;;;;;;5051996;28;20464;-65
2021/10/11 07:37:01;;;;;;;20.50;15.60;;;14.70;99.90;;;;;;5051501;28;20421;-66
2021/10/11 07:39:27;;;;;;;18.50;13.30;;;14.70;99.90;;;;;;5052237;28;20500;-65
2021/10/11 07:41:53;;;;;;;26.33;16.23;;;14.70;99.90;;;;;;5051485;28;20415;-66
2021/10/11 07:44:18;;;;;;;19.87;16.00;;;14.70;99.90;;;;;;5052094;28;20474;-65
2021/10/11 07:46:45;;;;;;;16.97;14.33;;;14.80;99.90;;;;;;5051969;28;20202;-65
2021/10/11 07:49:13;;;;;;;18.20;13.97;;;14.80;99.90;;;;;;5051376;28;20174;-65
2021/10/11 07:51:38;;;;;;;20.17;14.27;;;14.80;99.90;;;;;;5052446;28;20820;-65
2021/10/11 07:54:04;;;;;;;17.80;15.00;;;14.90;99.90;;;;;;5051347;28;20413;-65
2021/10/11 07:56:30;;;;;;;24.20;14.63;;;14.90;99.90;;;;;;5052255;28;20178;-65
2021/10/11 07:58:56;;;;;;;16.47;14.40;;;14.90;99.90;;;;;;5051265;28;20442;-66
2021/10/11 08:01:21;;;;;;;20.27;15.70;;;14.90;99.90;;;;;;5051945;28;20174;-65
2021/10/11 08:03:47;;;;;;;17.90;15.30;;;15.00;99.90;;;;;;5051801;28;20183;-65
2021/10/11 08:06:13;;;;;;;18.60;14.70;;;14.90;99.90;;;;;;5051125;28;20221;-65
2021/10/11 08:08:39;;;;;;;18.30;16.23;;;15.00;99.90;;;;;;5051499;28;20262;-65
2021/10/11 08:11:04;;;;;;;18.40;15.10;;;15.00;99.90;;;;;;5053470;28;20178;-65
2021/10/11 08:13:30;;;;;;;22.40;15.10;;;15.00;99.90;;;;;;5055154;28;20180;-65
2021/10/11 08:15:56;;;;;;;16.13;13.00;;;15.00;99.90;;;;;;5054806;28;20213;-66
2021/10/11 08:18:25;;;;;;;21.97;12.60;;;15.00;99.90;;;;;;5055329;28;20171;-65
2021/10/11 08:20:51;;;;;;;12.57;10.70;;;15.00;99.90;;;;;;5054710;28;20184;-75
2021/10/11 08:23:17;;;;;;;15.30;11.20;;;15.00;99.90;;;;;;5055206;28;20480;-65
2021/10/11 08:25:44;;;;;;;13.97;11.43;;;15.00;99.90;;;;;;5054948;28;21001;-65
2021/10/11 08:28:10;;;;;;;16.27;12.30;;;15.10;99.90;;;;;;5054504;28;20497;-65
2021/10/11 08:30:36;;;;;;;13.03;11.40;;;15.10;99.90;;;;;;5054845;28;20491;-66
2021/10/11 08:33:02;;;;;;;12.90;11.50;;;15.10;99.90;;;;;;5054443;28;20420;-65
2021/10/11 08:35:28;;;;;;;13.73;12.17;;;15.10;99.90;;;;;;5036905;28;20555;-65
2021/10/11 08:37:54;;;;;;;12.97;10.87;;;15.10;99.90;;;;;;5054337;28;20183;-66
2021/10/11 08:40:21;;;;;;;15.33;13.60;;;15.10;99.90;;;;;;5054877;28;20187;-65
2021/10/11 08:42:49;;;;;;;15.90;12.67;;;15.10;99.90;;;;;;5054800;28;20534;-65
2021/10/11 08:45:15;;;;;;;14.47;10.90;;;15.20;99.90;;;;;;5054169;28;20796;-65
2021/10/11 08:47:40;;;;;;;12.07;9.90;;;15.20;99.90;;;;;;5054679;28;20462;-65
2021/10/11 08:50:10;;;;;;;13.23;9.87;;;15.20;99.90;;;;;;5054179;28;20191;-66
2021/10/11 08:52:37;;;;;;;10.40;9.37;;;15.20;99.90;;;;;;5054742;28;20164;-66
2021/10/11 08:55:04;;;;;;;10.03;9.10;;;15.20;99.90;;;;;;5054059;28;20423;-65
2021/10/11 08:57:32;;;;;;;11.47;8.80;;;15.30;99.90;;;;;;5054658;28;20418;-66
2021/10/11 09:00:13;;;;;;;12.47;9.50;;;15.30;99.90;;;;;;5036138;28;20418;-66
2021/10/11 09:02:53;;;;;;;9.97;7.47;;;15.30;99.90;;;;;;5054601;28;20401;-65
2021/10/11 09:05:38;;;;;;;12.67;9.53;;;15.30;99.90;;;;;;5054584;28;20414;-65
2021/10/11 09:08:13;;;;;;;10.57;8.17;;;15.40;99.90;;;;;;5053822;28;20518;-65
2021/10/11 09:11:00;;;;;;;11.60;7.37;;;15.40;99.90;;;;;;5054790;28;20788;-65
2021/10/11 09:13:30;;;;;;;10.30;7.23;;;15.40;99.90;;;;;;5054220;28;20455;-66
2021/10/11 09:16:22;;;;;;;10.77;6.57;;;15.30;99.90;;;;;;5053993;28;20841;-66
2021/10/11 09:18:55;;;;;;;12.10;6.90;;;15.30;99.90;;;;;;5054251;28;20468;-65
2021/10/11 09:21:41;;;;;;;9.30;7.03;;;15.30;99.90;;;;;;5053582;28;20459;-65
2021/10/11 09:24:19;;;;;;;13.13;6.10;;;15.20;99.90;;;;;;5052017;28;20596;-65
2021/10/11 09:26:46;;;;;;;8.43;7.63;;;15.30;99.90;;;;;;5053869;28;20456;-65
2021/10/11 09:29:13;;;;;;;9.87;8.90;;;15.30;99.90;;;;;;5035569;28;20466;-65
2021/10/11 09:31:48;;;;;;;8.13;6.60;;;15.30;99.90;;;;;;5053614;28;20410;-65
2021/10/11 09:34:15;;;;;;;8.50;6.37;;;15.20;99.90;;;;;;5053102;28;20464;-66
2021/10/11 09:36:41;;;;;;;6.57;5.80;;;15.20;99.90;;;;;;5053546;28;20417;-65
2021/10/11 09:39:07;;;;;;;9.63;4.73;;;15.10;99.90;;;;;;5051137;28;20434;-66
2021/10/11 09:41:32;;;;;;;5.13;4.10;;;15.10;99.90;;;;;;5053965;28;20175;-65
2021/10/11 09:43:58;;;;;;;4.07;3.20;;;15.10;99.90;;;;;;5053189;28;20188;-66
2021/10/11 09:46:28;;;;;;;8.00;3.80;;;15.10;99.90;;;;;;5037640;28;20358;-65
2021/10/11 09:48:58;;;;;;;3.77;3.27;;;15.10;99.90;;;;;;5035865;28;20179;-65
2021/10/11 09:51:25;;;;;;;7.90;3.10;;;15.00;99.90;;;;;;5033678;28;20420;-65
2021/10/11 09:53:52;;;;;;;10.40;4.20;;;15.00;99.90;;;;;;5033682;28;20457;-65
2021/10/11 09:56:19;;;;;;;6.47;4.07;;;15.00;99.90;;;;;;5032955;28;20406;-65
2021/10/11 09:58:45;;;;;;;7.10;3.90;;;15.00;99.90;;;;;;5049364;28;20501;-65
2021/10/11 10:01:11;;;;;;;7.60;5.03;;;15.00;99.90;;;;;;5053104;28;20444;-65
2021/10/11 10:03:38;;;;;;;7.77;5.80;;;15.00;99.90;;;;;;5053070;28;20170;-66
2021/10/11 10:06:07;;;;;;;7.37;4.60;;;15.00;99.90;;;;;;5052562;28;20817;-65
2021/10/11 10:08:34;;;;;;;10.60;6.10;;;15.10;99.90;;;;;;5052493;28;20878;-66
2021/10/11 10:11:01;;;;;;;7.10;6.40;;;15.10;99.90;;;;;;5052541;28;20410;-66
2021/10/11 10:13:27;;;;;;;10.40;6.00;;;15.10;99.90;;;;;;5053160;28;20405;-64
2021/10/11 10:16:05;;;;;;;4.67;4.20;;;15.10;99.90;;;;;;5052980;28;20425;-64
2021/10/11 10:18:41;;;;;;;7.63;6.07;;;15.10;99.90;;;;;;5053159;28;20936;-65
2021/10/11 10:21:08;;;;;;;5.70;5.00;;;15.10;99.90;;;;;;5052001;28;20419;-65
2021/10/11 10:23:35;;;;;;;6.00;4.87;;;15.20;99.90;;;;;;5052802;28;20432;-65
2021/10/11 10:26:04;;;;;;;5.23;4.17;;;15.20;99.90;;;;;;5052160;28;20535;-65
2021/10/11 10:28:54;;;;;;;4.30;4.00;;;15.20;99.90;;;;;;5052899;28;20411;-65
2021/10/11 10:31:34;;;;;;;7.80;5.00;;;15.30;99.90;;;;;;5034575;28;20494;-64
2021/10/11 10:34:01;;;;;;;7.30;4.90;;;15.40;99.90;;;;;;5051253;28;20458;-66
2021/10/11 10:36:28;;;;;;;6.30;5.73;;;15.50;99.90;;;;;;5052085;28;20431;-64
2021/10/11 10:39:05;;;;;;;8.30;5.20;;;15.70;99.90;;;;;;5052789;28;20452;-64
2021/10/11 10:41:31;;;;;;;6.77;6.00;;;15.80;99.90;;;;;;5052647;28;20419;-64
2021/10/11 10:44:09;;;;;;;5.27;4.67;;;15.90;99.90;;;;;;5052409;28;20754;-65
2021/10/11 10:46:34;;;;;;;7.70;6.67;;;16.00;99.90;;;;;;5041852;28;20502;-65
2021/10/11 10:49:00;;;;;;;6.53;5.93;;;16.00;99.90;;;;;;5036836;28;20426;-66
2021/10/11 10:51:26;;;;;;;7.10;4.30;;;16.10;99.90;;;;;;5052638;28;20176;-64
2021/10/11 10:53:57;;;;;;;5.40;3.70;;;16.20;99.90;;;;;;5051969;28;20177;-64
2021/10/11 10:56:24;;;;;;;9.33;5.47;;;16.20;99.90;;;;;;5051667;28;20550;-64
2021/10/11 10:59:02;;;;;;;8.87;6.07;;;16.20;99.90;;;;;;5052886;28;20810;-64
2021/10/11 11:01:28;;;;;;;5.10;3.50;;;16.30;99.90;;;;;;5052661;28;20396;-65
2021/10/11 11:03:53;;;;;;;4.77;3.30;;;16.40;99.90;;;;;;5052006;28;20431;-65
2021/10/11 11:06:30;;;;;;;5.30;2.83;;;16.60;99.90;;;;;;5051799;28;20193;-65
2021/10/11 11:09:00;;;;;;;6.40;2.90;;;16.80;99.90;;;;;;5052202;28;20186;-65
2021/10/11 11:11:28;;;;;;;4.67;3.50;;;16.90;99.90;;;;;;5052106;28;20499;-65
2021/10/11 11:13:58;;;;;;;13.67;4.63;;;17.00;99.90;;;;;;5051940;28;20421;-65
2021/10/11 11:16:26;;;;;;;6.07;4.53;;;17.10;99.90;;;;;;5052025;28;20408;-65
2021/10/11 11:18:54;;;;;;;7.90;4.60;;;17.20;99.90;;;;;;5052074;28;20447;-65
2021/10/11 11:21:20;;;;;;;7.27;4.00;;;17.20;99.90;;;;;;5051762;28;20491;-65
2021/10/11 11:23:46;;;;;;;5.93;4.53;;;17.30;99.90;;;;;;5051806;28;20789;-65
2021/10/11 11:26:12;;;;;;;6.17;4.27;;;17.60;99.90;;;;;;5051334;28;20206;-65
2021/10/11 11:28:37;;;;;;;5.47;4.33;;;17.80;99.90;;;;;;5052207;28;20919;-65
2021/10/11 11:31:06;;;;;;;6.83;5.13;;;17.80;99.70;;;;;;5033776;28;20177;-66
2021/10/11 11:33:33;;;;;;;8.03;4.30;;;17.90;99.60;;;;;;5051499;28;20266;-66
2021/10/11 11:36:04;;;;;;;5.13;4.40;;;18.10;99.60;;;;;;5052425;28;20408;-66
2021/10/11 11:38:35;;;;;;;7.33;4.93;;;18.10;98.10;;;;;;5052157;28;20911;-66
2021/10/11 11:41:03;;;;;;;6.17;5.07;;;18.20;98.20;;;;;;5052252;28;20864;-66
2021/10/11 11:43:31;;;;;;;7.03;4.23;;;18.20;97.30;;;;;;5051534;28;20423;-67
2021/10/11 11:45:59;;;;;;;7.53;3.60;;;18.10;96.60;;;;;;5055742;28;20443;-64
2021/10/11 11:48:28;;;;;;;6.03;5.00;;;18.10;96.90;;;;;;5054893;28;20801;-63
2021/10/11 11:50:59;;;;;;;7.13;6.63;;;18.00;97.70;;;;;;5052693;28;20416;-64
2021/10/11 11:53:26;;;;;;;7.93;7.27;;;17.90;98.30;;;;;;5054835;28;20420;-64
2021/10/11 11:55:57;;;;;;;5.80;5.00;;;17.90;98.10;;;;;;5037408;28;20435;-63
2021/10/11 11:58:31;;;;;;;5.97;4.00;;;18.00;97.50;;;;;;5054388;28;20996;-64
2021/10/11 12:01:18;;;;;;;10.43;5.80;;;17.90;97.40;;;;;;5055837;28;20392;-64
2021/10/11 12:03:53;;;;;;;10.00;4.90;;;17.80;98.00;;;;;;5054598;28;20538;-64
2021/10/11 12:06:26;;;;;;;8.03;4.73;;;17.70;98.10;;;;;;5054775;28;20481;-64
2021/10/11 12:08:52;;;;;;;7.17;6.63;;;17.60;98.10;;;;;;5055645;28;20427;-63
2021/10/11 12:11:19;;;;;;;5.60;5.00;;;17.60;98.20;;;;;;5055005;28;20452;-64
2021/10/11 12:13:45;;;;;;;7.00;4.97;;;17.60;98.40;;;;;;5055308;28;20739;-64
2021/10/11 12:16:13;;;;;;;7.13;4.50;;;17.70;98.00;;;;;;5054856;28;20411;-64
2021/10/11 12:18:40;;;;;;;8.80;3.93;;;17.70;98.20;;;;;;5055395;28;20423;-64
2021/10/11 12:21:07;;;;;;;7.33;6.63;;;17.60;97.30;;;;;;5054691;28;20426;-64
2021/10/11 12:23:38;;;;;;;4.60;4.13;;;17.60;96.60;;;;;;5055201;28;20404;-63
2021/10/11 12:26:04;;;;;;;6.83;4.13;;;17.60;96.60;;;;;;5055316;28;20440;-63
2021/10/11 12:28:30;;;;;;;5.40;4.00;;;17.60;96.80;;;;;;5055215;28;20416;-63
2021/10/11 12:31:02;;;;;;;4.20;3.73;;;17.50;95.80;;;;;;5055228;28;20466;-64
2021/10/11 12:33:38;;;;;;;4.40;4.00;;;17.50;95.60;;;;;;5054325;28;20166;-64